createdAt,value
2022-10-09T00:03:45.967Z,9.52
2022-10-09T00:09:17.670Z,9.46
2022-10-09T00:14:49.404Z,9.39
2022-10-09T00:20:21.053Z,9.32
2022-10-09T00:25:52.939Z,9.25
2022-10-09T00:31:24.581Z,9.18
2022-10-09T00:42:26.097Z,9.11
2022-10-09T00:47:57.473Z,9.07
2022-10-09T00:53:29.341Z,9.02
2022-10-09T00:59:00.772Z,8.98
2022-10-09T01:04:32.349Z,8.94
2022-10-09T01:10:03.957Z,8.90
2022-10-09T01:21:05.048Z,8.77
2022-10-09T01:26:36.624Z,8.73
2022-10-09T01:32:08.368Z,8.69
2022-10-09T01:37:40.115Z,8.64
2022-10-09T01:43:11.770Z,8.60
2022-10-09T01:48:43.392Z,8.56
2022-10-09T01:54:15.293Z,8.52
2022-10-09T01:59:47.039Z,8.48
2022-10-09T02:05:18.961Z,8.45
2022-10-09T02:10:51.151Z,8.42
2022-10-09T02:16:22.880Z,8.38
2022-10-09T02:21:54.724Z,8.33
2022-10-09T02:32:55.060Z,8.22
2022-10-09T02:43:56.425Z,8.12
2022-10-09T02:49:28.257Z,8.05
2022-10-09T02:54:59.921Z,7.99
2022-10-09T03:11:30.708Z,7.87
2022-10-09T03:17:02.404Z,7.81
2022-10-09T03:22:34.055Z,7.75
2022-10-09T03:28:06.018Z,7.72
2022-10-09T03:33:37.661Z,7.69
2022-10-09T03:39:09.424Z,7.66
2022-10-09T03:44:41.173Z,7.62
2022-10-09T03:50:12.951Z,7.58
2022-10-09T03:55:46.535Z,7.56
2022-10-09T04:06:47.906Z,7.51
2022-10-09T04:12:20.020Z,7.47
2022-10-09T04:17:51.622Z,7.42
2022-10-09T04:23:23.400Z,7.38
2022-10-09T04:28:55.371Z,7.35
2022-10-09T04:34:27.156Z,7.32
2022-10-09T04:39:59.067Z,7.29
2022-10-09T04:45:31.597Z,7.24
2022-10-09T05:02:02.340Z,7.08
2022-10-09T05:07:33.981Z,7.01
2022-10-09T05:13:06.083Z,6.96
2022-10-09T05:24:10.379Z,6.81
2022-10-09T05:35:09.384Z,6.67
2022-10-09T05:40:41.136Z,6.64
2022-10-09T05:46:12.902Z,6.63
2022-10-09T05:51:44.547Z,6.64
2022-10-09T05:57:16.469Z,6.67
2022-10-09T06:02:48.306Z,6.71
2022-10-09T06:08:19.901Z,6.78
2022-10-09T06:13:51.948Z,6.88
2022-10-09T06:19:23.871Z,6.97
2022-10-09T06:24:55.567Z,7.04
2022-10-09T06:30:27.391Z,7.11
2022-10-09T06:36:08.536Z,7.20
2022-10-09T06:41:30.907Z,7.32
2022-10-09T06:47:02.500Z,7.44
2022-10-09T06:52:34.533Z,7.57
2022-10-09T06:58:06.193Z,7.72
2022-10-09T07:03:37.925Z,7.84
2022-10-09T07:09:10.012Z,7.96
2022-10-09T07:14:41.739Z,8.06
2022-10-09T07:20:13.589Z,8.13
2022-10-09T07:22:27.144Z,7.81
2022-10-09T07:27:56.853Z,8.02
2022-10-09T07:38:58.071Z,8.28
2022-10-09T07:44:29.862Z,8.44
2022-10-09T07:50:01.683Z,8.62
2022-10-09T07:55:33.566Z,8.77
2022-10-09T08:01:05.310Z,8.92
2022-10-09T08:06:37.128Z,9.09
2022-10-09T08:17:39.820Z,9.48
2022-10-09T08:23:11.637Z,9.62
2022-10-09T08:28:43.654Z,9.75
2022-10-09T08:34:15.301Z,9.85
2022-10-09T08:39:46.716Z,9.99
2022-10-09T08:45:18.444Z,10.21
2022-10-09T08:50:49.915Z,10.39
2022-10-09T08:56:21.704Z,10.55
2022-10-09T09:01:53.192Z,10.64
2022-10-09T09:07:24.958Z,10.77
2022-10-09T09:12:56.912Z,10.96
2022-10-09T09:18:28.919Z,11.09
2022-10-09T09:24:00.446Z,11.28
2022-10-09T09:29:31.874Z,11.53
2022-10-09T09:35:03.486Z,11.73
2022-10-09T09:40:37.123Z,11.91
2022-10-09T09:46:06.960Z,12.08
2022-10-09T09:48:31.018Z,12.09
2022-10-09T09:54:02.314Z,12.35
2022-10-09T09:59:33.832Z,12.51
2022-10-09T10:05:05.729Z,12.67
2022-10-09T10:10:37.381Z,12.86
2022-10-09T10:16:08.884Z,13.02
2022-10-09T10:21:40.708Z,13.18
2022-10-09T10:27:12.518Z,13.34
2022-10-09T10:32:44.259Z,13.49
2022-10-09T10:38:16.113Z,13.63
2022-10-09T10:43:47.884Z,13.78
2022-10-09T10:49:19.662Z,13.88
2022-10-09T10:54:51.477Z,13.96
2022-10-09T11:00:23.281Z,14.07
2022-10-09T11:05:55.087Z,14.17
2022-10-09T11:16:56.304Z,14.27
2022-10-09T11:22:28.132Z,14.35
2022-10-09T11:28:00.213Z,14.37
2022-10-09T11:33:31.769Z,14.42
2022-10-09T11:39:03.187Z,14.54
2022-10-09T11:44:34.987Z,14.57
2022-10-09T11:50:06.490Z,14.64
2022-10-09T11:52:30.495Z,14.54
2022-10-09T11:58:01.948Z,14.74
2022-10-09T12:03:33.693Z,14.79
2022-10-09T12:09:05.264Z,14.80
2022-10-09T12:14:37.063Z,14.79
2022-10-09T12:20:08.907Z,14.78
2022-10-09T12:25:40.642Z,14.83
2022-10-09T12:31:12.710Z,14.90
2022-10-09T12:36:44.189Z,14.95
2022-10-09T12:42:15.451Z,14.96
2022-10-09T12:47:46.691Z,14.98
2022-10-09T12:58:47.679Z,14.99
2022-10-09T13:04:19.491Z,15.04
2022-10-09T13:09:50.935Z,15.05
2022-10-09T13:15:22.352Z,15.07
2022-10-09T13:20:54.125Z,15.06
2022-10-09T13:26:25.742Z,15.03
2022-10-09T13:31:57.314Z,15.07
2022-10-09T13:37:29.083Z,15.07
2022-10-09T13:43:00.905Z,15.01
2022-10-09T13:48:32.673Z,15.10
2022-10-09T13:54:04.616Z,15.15
2022-10-09T13:59:36.081Z,15.04
2022-10-09T14:05:07.691Z,14.95
2022-10-09T14:10:39.306Z,14.89
2022-10-09T14:16:11.943Z,14.93
2022-10-09T14:21:43.681Z,14.95
2022-10-09T14:27:15.443Z,14.91
2022-10-09T14:32:49.505Z,14.92
2022-10-09T14:38:20.713Z,14.95
2022-10-09T14:43:52.168Z,14.90
2022-10-09T14:49:23.953Z,14.80
2022-10-09T14:54:55.554Z,14.78
2022-10-09T15:00:26.735Z,14.73
2022-10-09T15:05:58.224Z,14.67
2022-10-09T15:11:30.082Z,14.67
2022-10-09T15:17:01.837Z,14.63
2022-10-09T15:22:32.977Z,14.56
2022-10-09T15:28:04.421Z,14.49
2022-10-09T15:33:35.860Z,14.45
2022-10-09T15:39:07.525Z,14.33
2022-10-09T15:44:38.867Z,14.18
2022-10-09T15:50:10.674Z,14.06
2022-10-09T15:55:42.499Z,13.96
2022-10-09T16:01:14.410Z,13.92
2022-10-09T16:06:45.680Z,13.88
2022-10-09T16:12:17.094Z,13.81
2022-10-09T16:17:48.993Z,13.76
2022-10-09T16:23:20.814Z,13.67
2022-10-09T16:28:52.453Z,13.55
2022-10-09T16:34:24.452Z,13.47
2022-10-09T16:39:55.746Z,13.42
2022-10-09T16:50:58.858Z,13.33
2022-10-09T16:56:30.615Z,13.27
2022-10-09T17:02:02.361Z,13.19
2022-10-09T17:07:33.979Z,13.12
2022-10-09T17:13:05.446Z,13.10
2022-10-09T17:18:37.239Z,13.10
2022-10-09T17:24:09.094Z,13.05
2022-10-09T17:29:40.835Z,12.95
2022-10-09T17:35:12.604Z,12.84
2022-10-09T17:40:44.152Z,12.74
2022-10-09T17:46:15.447Z,12.62
2022-10-09T17:51:46.795Z,12.52
2022-10-09T17:57:18.262Z,12.46
2022-10-09T18:02:49.659Z,12.39
2022-10-09T18:08:21.558Z,12.34
2022-10-09T18:13:53.313Z,12.29
2022-10-09T18:19:24.924Z,12.19
2022-10-09T18:24:56.716Z,12.07
2022-10-09T18:30:28.301Z,11.93
2022-10-09T18:35:59.968Z,11.81
2022-10-09T18:41:32.430Z,11.69
2022-10-09T18:49:25.512Z,11.10
2022-10-09T18:54:57.371Z,11.26
2022-10-09T19:00:28.862Z,11.32
2022-10-09T19:06:00.403Z,11.34
2022-10-09T19:11:32.152Z,11.34
2022-10-09T19:17:03.531Z,11.33
2022-10-09T19:22:35.044Z,11.27
2022-10-09T19:28:06.930Z,11.19
2022-10-09T19:33:38.382Z,11.12
2022-10-09T19:39:09.759Z,11.05
2022-10-09T19:44:41.228Z,10.97
2022-10-09T19:50:13.125Z,10.88
2022-10-09T19:55:44.554Z,10.81
2022-10-09T20:01:15.880Z,10.75
2022-10-09T20:06:47.477Z,10.70
2022-10-09T20:17:49.486Z,10.61
2022-10-09T20:23:20.699Z,10.58
2022-10-09T20:28:52.315Z,10.57
2022-10-09T20:39:52.802Z,10.55
2022-10-09T20:45:24.211Z,10.54
2022-10-09T20:50:55.562Z,10.52
2022-10-09T20:56:26.802Z,10.50
2022-10-09T21:01:58.229Z,10.49
2022-10-09T21:07:29.365Z,10.49
2022-10-09T21:13:00.804Z,10.50
2022-10-09T21:18:32.422Z,10.51
2022-10-09T21:24:03.642Z,10.53
2022-10-09T21:29:34.946Z,10.54
2022-10-09T21:35:06.231Z,10.53
2022-10-09T21:40:37.604Z,10.52
2022-10-09T21:46:08.859Z,10.50
2022-10-09T21:51:40.276Z,10.46
2022-10-09T21:57:11.980Z,10.44
2022-10-09T22:02:43.182Z,10.42
2022-10-09T22:08:14.348Z,10.42
2022-10-09T22:13:45.721Z,10.40
2022-10-09T22:19:17.113Z,10.37
2022-10-09T22:24:48.687Z,10.33
2022-10-09T22:30:20.001Z,10.28
2022-10-09T22:41:21.057Z,10.15
2022-10-09T22:46:52.743Z,10.08
2022-10-09T22:52:24.108Z,10.02
2022-10-09T22:57:55.378Z,9.95
2022-10-09T23:03:27.057Z,9.88
2022-10-09T23:14:28.116Z,9.76
2022-10-09T23:19:59.848Z,9.70
2022-10-09T23:25:31.421Z,9.64
2022-10-09T23:31:02.679Z,9.58
2022-10-09T23:36:34.183Z,9.51
2022-10-09T23:38:57.630Z,9.01
2022-10-09T23:44:29.084Z,9.19
2022-10-09T23:50:00.954Z,9.31
2022-10-09T23:55:32.988Z,9.42
